createdAt,value
2023-02-11T00:00:40.054Z,102242.81
2023-02-11T00:03:06.893Z,102236.81
2023-02-11T00:05:33.730Z,102227.44
2023-02-11T00:08:00.107Z,102227.88
2023-02-11T00:10:26.482Z,102214.97
2023-02-11T00:12:52.811Z,102209.78
2023-02-11T00:15:19.132Z,102217.03
2023-02-11T00:17:45.451Z,102218.78
2023-02-11T00:20:11.760Z,102228.41
2023-02-11T00:22:38.065Z,102225.09
2023-02-11T00:25:04.643Z,102227.09
2023-02-11T00:27:30.960Z,102244.72
2023-02-11T00:29:57.278Z,102237.38
2023-02-11T00:32:23.603Z,102225.72
2023-02-11T00:34:52.540Z,102229.69
2023-02-11T00:37:18.853Z,102232.56
2023-02-11T00:39:45.206Z,102229.38
2023-02-11T00:42:14.482Z,102220.06
2023-02-11T00:44:40.888Z,102230.44
2023-02-11T00:47:07.189Z,102222.81
2023-02-11T00:49:33.657Z,102231.69
2023-02-11T00:51:59.972Z,102229.19
2023-02-11T00:54:28.394Z,102227.97
2023-02-11T00:56:55.986Z,102233.38
2023-02-11T00:59:22.293Z,102237.44
2023-02-11T01:01:48.640Z,102236.88
2023-02-11T01:04:15.008Z,102254.50
2023-02-11T01:06:41.321Z,102258.19
2023-02-11T01:09:07.636Z,102265.31
2023-02-11T01:11:33.958Z,102261.19
2023-02-11T01:14:00.292Z,102264.44
2023-02-11T01:16:26.607Z,102261.59
2023-02-11T01:18:52.933Z,102248.47
2023-02-11T01:21:19.319Z,102240.47
2023-02-11T01:23:45.627Z,102218.91
2023-02-11T01:26:12.145Z,102213.13
2023-02-11T01:28:38.582Z,102217.03
2023-02-11T01:31:05.077Z,102214.59
2023-02-11T01:33:31.515Z,102210.00
2023-02-11T01:36:02.885Z,102213.13
2023-02-11T01:38:29.922Z,102203.66
2023-02-11T01:40:59.992Z,102202.00
2023-02-11T01:43:31.009Z,102204.69
2023-02-11T01:46:17.523Z,102207.38
2023-02-11T01:48:47.669Z,102200.53
2023-02-11T01:51:23.250Z,102207.56
2023-02-11T01:53:49.976Z,102201.81
2023-02-11T01:56:18.053Z,102202.38
2023-02-11T01:58:47.081Z,102200.53
2023-02-11T02:01:17.652Z,102206.69
2023-02-11T02:03:47.620Z,102211.00
2023-02-11T02:06:24.636Z,102218.66
2023-02-11T02:09:01.136Z,102211.91
2023-02-11T02:11:27.701Z,102199.06
2023-02-11T02:13:54.012Z,102206.09
2023-02-11T02:16:24.849Z,102197.38
2023-02-11T02:19:13.658Z,102192.44
2023-02-11T02:21:59.193Z,102184.53
2023-02-11T02:24:43.477Z,102178.72
2023-02-11T02:27:47.539Z,102176.28
2023-02-11T02:30:55.744Z,102178.59
2023-02-11T02:34:00.563Z,102170.88
2023-02-11T02:36:57.067Z,102176.72
2023-02-11T02:39:28.485Z,102172.69
2023-02-11T02:41:56.738Z,102165.03
2023-02-11T02:44:23.885Z,102162.53
2023-02-11T02:46:50.249Z,102175.63
2023-02-11T02:49:17.167Z,102172.31
2023-02-11T02:52:07.075Z,102180.66
2023-02-11T02:54:53.005Z,102176.63
2023-02-11T02:57:37.625Z,102172.56
2023-02-11T03:00:19.087Z,102169.88
2023-02-11T03:03:15.623Z,102170.91
2023-02-11T03:05:54.371Z,102166.38
2023-02-11T03:09:05.883Z,102167.00
2023-02-11T03:11:34.174Z,102161.13
2023-02-11T03:14:04.571Z,102166.13
2023-02-11T03:16:31.074Z,102157.00
2023-02-11T03:19:03.681Z,102155.09
2023-02-11T03:21:34.187Z,102154.75
2023-02-11T03:24:05.739Z,102145.63
2023-02-11T03:26:46.438Z,102137.38
2023-02-11T03:29:18.607Z,102148.78
2023-02-11T03:32:03.581Z,102145.66
2023-02-11T03:34:37.808Z,102141.56
2023-02-11T03:37:17.660Z,102137.59
2023-02-11T03:39:54.966Z,102129.19
2023-02-11T03:42:26.356Z,102124.19
2023-02-11T03:45:00.323Z,102117.88
2023-02-11T03:47:29.284Z,102115.63
2023-02-11T03:49:58.794Z,102116.88
2023-02-11T03:52:26.099Z,102121.75
2023-02-11T03:54:55.988Z,102126.75
2023-02-11T03:57:22.316Z,102128.38
2023-02-11T03:59:59.260Z,102132.16
2023-02-11T04:02:33.118Z,102138.97
2023-02-11T04:04:59.998Z,102134.22
2023-02-11T04:07:27.204Z,102133.41
2023-02-11T04:09:53.720Z,102135.22
2023-02-11T04:12:20.705Z,102146.44
2023-02-11T04:14:47.035Z,102152.47
2023-02-11T04:17:13.450Z,102157.81
2023-02-11T04:19:39.807Z,102154.41
2023-02-11T04:22:07.092Z,102146.78
2023-02-11T04:24:33.747Z,102149.84
2023-02-11T04:27:00.093Z,102137.59
2023-02-11T04:29:26.645Z,102136.19
2023-02-11T04:31:52.964Z,102134.69
2023-02-11T04:34:19.294Z,102133.19
2023-02-11T04:36:45.594Z,102137.03
2023-02-11T04:39:11.988Z,102134.09
2023-02-11T04:41:38.425Z,102132.63
2023-02-11T04:44:05.368Z,102133.75
2023-02-11T04:46:31.707Z,102124.53
2023-02-11T04:48:58.170Z,102141.44
2023-02-11T04:51:24.793Z,102136.75
2023-02-11T04:53:51.132Z,102136.50
2023-02-11T04:56:17.477Z,102136.84
2023-02-11T04:58:43.792Z,102139.75
2023-02-11T05:01:13.471Z,102145.97
2023-02-11T05:03:40.317Z,102142.25
2023-02-11T05:06:07.043Z,102147.78
2023-02-11T05:08:33.422Z,102146.84
2023-02-11T05:10:59.930Z,102152.03
2023-02-11T05:13:26.217Z,102140.25
2023-02-11T05:15:52.993Z,102136.13
2023-02-11T05:18:19.406Z,102134.00
2023-02-11T05:20:45.705Z,102138.13
2023-02-11T05:23:12.286Z,102129.66
2023-02-11T05:25:38.933Z,102133.72
2023-02-11T05:28:06.241Z,102131.06
2023-02-11T05:30:32.782Z,102124.41
2023-02-11T05:32:59.077Z,102126.97
2023-02-11T05:35:25.542Z,102125.19
2023-02-11T05:37:51.847Z,102113.16
2023-02-11T05:40:18.244Z,102118.66
2023-02-11T05:42:44.523Z,102118.56
2023-02-11T05:45:10.847Z,102112.31
2023-02-11T05:47:37.139Z,102122.78
2023-02-11T05:50:03.727Z,102117.56
2023-02-11T05:52:30.054Z,102119.66
2023-02-11T05:54:56.363Z,102125.22
2023-02-11T05:57:22.999Z,102127.22
2023-02-11T05:59:49.309Z,102112.31
2023-02-11T06:02:15.687Z,102110.91
2023-02-11T06:04:42.056Z,102103.41
2023-02-11T06:07:08.398Z,102093.75
2023-02-11T06:09:34.709Z,102108.69
2023-02-11T06:12:01.018Z,102113.16
2023-02-11T06:14:27.332Z,102106.88
2023-02-11T06:16:53.659Z,102111.00
2023-02-11T06:19:19.996Z,102116.41
2023-02-11T06:21:46.342Z,102111.91
2023-02-11T06:24:12.980Z,102122.50
2023-02-11T06:26:39.314Z,102119.75
2023-02-11T06:29:05.629Z,102122.69
2023-02-11T06:31:32.094Z,102125.63
2023-02-11T06:33:58.435Z,102129.53
2023-02-11T06:36:25.056Z,102129.34
2023-02-11T06:38:52.035Z,102138.84
2023-02-11T06:41:19.893Z,102138.75
2023-02-11T06:43:46.436Z,102147.91
2023-02-11T06:46:13.151Z,102145.94
2023-02-11T06:48:39.537Z,102149.66
2023-02-11T06:51:08.468Z,102143.38
2023-02-11T06:53:40.431Z,102152.00
2023-02-11T06:56:09.875Z,102143.34
2023-02-11T06:58:37.112Z,102140.91
2023-02-11T07:01:08.550Z,102145.06
2023-02-11T07:03:36.778Z,102143.88
2023-02-11T07:06:04.129Z,102145.47
2023-02-11T07:08:30.439Z,102143.81
2023-02-11T07:10:56.740Z,102142.19
2023-02-11T07:13:23.052Z,102143.44
2023-02-11T07:15:49.708Z,102147.91
2023-02-11T07:18:16.266Z,102156.19
2023-02-11T07:20:42.824Z,102152.72
2023-02-11T07:23:09.196Z,102168.16
2023-02-11T07:25:36.080Z,102157.69
2023-02-11T07:28:03.984Z,102158.72
2023-02-11T07:30:30.340Z,102165.78
2023-02-11T07:32:56.684Z,102167.84
2023-02-11T07:35:22.992Z,102171.16
2023-02-11T07:37:49.288Z,102170.16
2023-02-11T07:40:15.670Z,102176.09
2023-02-11T07:42:41.982Z,102173.41
2023-02-11T07:45:08.738Z,102174.00
2023-02-11T07:47:35.558Z,102175.94
2023-02-11T07:50:01.880Z,102156.19
2023-02-11T07:52:31.420Z,102155.81
2023-02-11T07:54:57.734Z,102169.03
2023-02-11T07:57:24.040Z,102170.09
2023-02-11T07:59:50.335Z,102168.41
2023-02-11T08:02:16.683Z,102171.28
2023-02-11T08:04:42.988Z,102180.16
2023-02-11T08:07:09.294Z,102181.34
2023-02-11T08:09:35.645Z,102193.41
2023-02-11T08:12:02.050Z,102191.13
2023-02-11T08:14:28.354Z,102185.72
2023-02-11T08:16:54.706Z,102187.91
2023-02-11T08:19:21.066Z,102198.44
2023-02-11T08:21:47.399Z,102183.34
2023-02-11T08:24:13.735Z,102188.41
2023-02-11T08:26:40.154Z,102193.22
2023-02-11T08:29:10.793Z,102196.00
2023-02-11T08:31:40.899Z,102196.19
2023-02-11T08:34:07.245Z,102204.63
2023-02-11T08:36:36.239Z,102208.66
2023-02-11T08:39:18.470Z,102206.53
2023-02-11T08:41:47.476Z,102212.69
2023-02-11T08:44:13.905Z,102208.19
2023-02-11T08:46:40.388Z,102205.22
2023-02-11T08:49:06.692Z,102209.22
2023-02-11T08:51:33.333Z,102207.66
2023-02-11T08:54:00.731Z,102205.22
2023-02-11T08:56:28.051Z,102203.53
2023-02-11T08:58:54.822Z,102218.09
2023-02-11T09:01:25.277Z,102219.72
2023-02-11T09:03:51.736Z,102219.72
2023-02-11T09:06:18.682Z,102224.50
2023-02-11T09:08:48.516Z,102219.00
2023-02-11T09:11:15.593Z,102227.63
2023-02-11T09:13:43.584Z,102229.84
2023-02-11T09:16:18.286Z,102231.25
2023-02-11T09:18:44.696Z,102235.97
2023-02-11T09:21:11.274Z,102246.16
2023-02-11T09:23:37.596Z,102245.13
2023-02-11T09:26:09.460Z,102246.16
2023-02-11T09:28:35.986Z,102246.03
2023-02-11T09:31:10.276Z,102252.22
2023-02-11T09:33:38.615Z,102255.66
2023-02-11T09:36:06.401Z,102260.88
2023-02-11T09:38:33.221Z,102264.56
2023-02-11T09:40:59.727Z,102268.28
2023-02-11T09:43:53.873Z,102274.13
2023-02-11T09:46:22.987Z,102275.56
2023-02-11T09:48:51.736Z,102280.22
2023-02-11T09:51:47.558Z,102283.91
2023-02-11T09:54:23.180Z,102284.53
2023-02-11T09:56:49.500Z,102282.03
2023-02-11T09:59:16.634Z,102286.06
2023-02-11T10:01:58.848Z,102282.47
2023-02-11T10:04:59.346Z,102290.34
2023-02-11T10:07:41.766Z,102290.47
2023-02-11T10:10:35.172Z,102293.72
2023-02-11T10:13:35.786Z,102291.75
2023-02-11T10:16:40.628Z,102295.22
2023-02-11T10:19:15.360Z,102301.06
2023-02-11T10:21:57.411Z,102292.38
2023-02-11T10:24:24.350Z,102294.69
2023-02-11T10:26:51.748Z,102305.50
2023-02-11T10:29:36.550Z,102304.22
2023-02-11T10:32:10.991Z,102304.75
2023-02-11T10:34:41.419Z,102301.16
2023-02-11T10:37:12.845Z,102309.16
2023-02-11T10:39:40.838Z,102299.72
2023-02-11T10:42:11.693Z,102308.25
2023-02-11T10:44:42.385Z,102311.72
2023-02-11T10:47:18.675Z,102302.56
2023-02-11T10:49:46.732Z,102309.63
2023-02-11T10:52:17.433Z,102305.66
2023-02-11T10:55:00.665Z,102318.53
2023-02-11T10:57:40.514Z,102305.38
2023-02-11T11:00:40.129Z,102292.84
2023-02-11T11:03:19.919Z,102294.31
2023-02-11T11:05:52.416Z,102304.97
2023-02-11T11:08:19.535Z,102309.00
2023-02-11T11:11:02.498Z,102304.88
2023-02-11T11:13:34.916Z,102302.63
2023-02-11T11:16:13.602Z,102305.69
2023-02-11T11:18:41.650Z,102306.41
2023-02-11T11:21:15.961Z,102302.22
2023-02-11T11:23:49.995Z,102298.31
2023-02-11T11:26:17.831Z,102298.59
2023-02-11T11:28:54.760Z,102294.16
2023-02-11T11:31:32.734Z,102302.06
2023-02-11T11:34:03.460Z,102317.19
2023-02-11T11:36:37.700Z,102309.69
2023-02-11T11:39:24.683Z,102302.41
2023-02-11T11:42:02.562Z,102294.19
2023-02-11T11:44:35.246Z,102293.88
2023-02-11T11:47:07.571Z,102291.09
2023-02-11T11:49:41.630Z,102292.75
2023-02-11T11:52:46.165Z,102291.09
2023-02-11T11:55:22.629Z,102287.25
2023-02-11T11:57:49.427Z,102286.72
2023-02-11T12:00:20.775Z,102288.97
2023-02-11T12:03:08.730Z,102283.19
2023-02-11T12:05:44.129Z,102284.78
2023-02-11T12:08:25.420Z,102279.63
2023-02-11T12:11:16.582Z,102281.53
2023-02-11T12:14:00.695Z,102269.28
2023-02-11T12:16:50.830Z,102285.03
2023-02-11T12:19:32.400Z,102285.75
2023-02-11T12:22:26.469Z,102285.84
2023-02-11T12:25:16.294Z,102283.59
2023-02-11T12:27:45.354Z,102284.78
2023-02-11T12:30:50.625Z,102284.88
2023-02-11T12:34:07.998Z,102283.03
2023-02-11T12:36:57.722Z,102289.59
2023-02-11T12:39:44.231Z,102295.25
2023-02-11T12:42:31.763Z,102292.22
2023-02-11T12:45:08.745Z,102283.38
2023-02-11T12:48:13.936Z,102281.28
2023-02-11T12:50:54.857Z,102283.84
2023-02-11T12:53:30.230Z,102282.34
2023-02-11T12:56:04.724Z,102289.47
2023-02-11T12:58:44.937Z,102294.88
2023-02-11T13:01:24.520Z,102293.34
2023-02-11T13:03:55.791Z,102293.13
2023-02-11T13:06:29.141Z,102291.03
2023-02-11T13:09:02.784Z,102283.00
2023-02-11T13:11:40.169Z,102280.75
2023-02-11T13:14:21.830Z,102273.72
2023-02-11T13:16:50.532Z,102286.44
2023-02-11T13:19:25.219Z,102274.31
2023-02-11T13:22:04.067Z,102279.13
2023-02-11T13:24:33.119Z,102288.31
2023-02-11T13:27:24.681Z,102289.81
2023-02-11T13:30:16.044Z,102295.72
2023-02-11T13:32:54.677Z,102301.47
2023-02-11T13:35:42.657Z,102296.19
2023-02-11T13:38:19.722Z,102299.84
2023-02-11T13:41:04.715Z,102297.00
2023-02-11T13:43:33.621Z,102290.41
2023-02-11T13:46:02.920Z,102298.75
2023-02-11T13:48:33.254Z,102286.50
2023-02-11T13:51:02.670Z,102290.06
2023-02-11T13:53:29.733Z,102291.34
2023-02-11T13:56:08.792Z,102296.78
2023-02-11T13:58:49.571Z,102288.88
2023-02-11T14:01:42.152Z,102288.41
2023-02-11T14:04:23.193Z,102285.38
2023-02-11T14:07:26.450Z,102287.25
2023-02-11T14:09:52.771Z,102282.31
2023-02-11T14:12:25.455Z,102287.25
2023-02-11T14:15:18.873Z,102286.09
2023-02-11T14:17:45.823Z,102286.78
2023-02-11T14:20:32.948Z,102286.31
2023-02-11T14:22:59.870Z,102285.97
2023-02-11T14:25:26.846Z,102288.88
2023-02-11T14:28:00.818Z,102291.03
2023-02-11T14:30:34.690Z,102291.25
2023-02-11T14:33:16.704Z,102290.91
2023-02-11T14:36:05.219Z,102293.72
2023-02-11T14:39:09.256Z,102293.00
2023-02-11T14:41:41.564Z,102288.41
2023-02-11T14:44:21.123Z,102305.84
2023-02-11T14:46:49.821Z,102292.06
2023-02-11T14:49:26.382Z,102297.00
2023-02-11T14:51:56.282Z,102302.06
2023-02-11T14:54:26.647Z,102302.53
2023-02-11T14:57:16.102Z,102309.00
2023-02-11T15:00:00.599Z,102304.97
2023-02-11T15:02:34.755Z,102302.72
2023-02-11T15:05:24.163Z,102310.28
2023-02-11T15:07:54.103Z,102317.78
2023-02-11T15:10:32.720Z,102320.63
2023-02-11T15:13:00.706Z,102321.56
2023-02-11T15:15:28.271Z,102317.31
2023-02-11T15:17:58.019Z,102331.78
2023-02-11T15:20:31.012Z,102343.28
2023-02-11T15:23:07.556Z,102341.03
2023-02-11T15:25:34.406Z,102336.59
2023-02-11T15:28:00.972Z,102347.91
2023-02-11T15:30:31.464Z,102344.16
2023-02-11T15:33:00.521Z,102350.41
2023-02-11T15:35:39.087Z,102343.28
2023-02-11T15:38:05.749Z,102337.44
2023-02-11T15:40:34.570Z,102341.53
2023-02-11T15:43:03.089Z,102344.84
2023-02-11T15:45:34.165Z,102344.09
2023-02-11T15:48:14.213Z,102337.41
2023-02-11T15:50:42.100Z,102336.81
2023-02-11T15:53:56.547Z,102353.03
2023-02-11T15:56:31.218Z,102359.00
2023-02-11T15:59:00.179Z,102358.06
2023-02-11T16:01:34.546Z,102355.94
2023-02-11T16:04:02.077Z,102353.03
2023-02-11T16:06:39.282Z,102352.28
2023-02-11T16:09:23.289Z,102345.00
2023-02-11T16:11:49.528Z,102345.75
2023-02-11T16:14:27.936Z,102357.38
2023-02-11T16:16:59.934Z,102357.28
2023-02-11T16:19:28.317Z,102356.09
2023-02-11T16:21:57.821Z,102358.69
2023-02-11T16:24:31.842Z,102360.66
2023-02-11T16:27:01.622Z,102365.00
2023-02-11T16:29:36.215Z,102368.78
2023-02-11T16:32:18.335Z,102371.34
2023-02-11T16:34:45.082Z,102380.03
2023-02-11T16:37:13.803Z,102385.06
2023-02-11T16:39:40.600Z,102396.25
2023-02-11T16:42:07.756Z,102395.88
2023-02-11T16:44:35.167Z,102400.00
2023-02-11T16:47:03.528Z,102394.59
2023-02-11T16:49:32.890Z,102398.13
2023-02-11T16:52:02.362Z,102392.50
2023-02-11T16:54:29.515Z,102398.50
2023-02-11T16:56:56.782Z,102391.38
2023-02-11T16:59:23.389Z,102399.09
2023-02-11T17:01:52.033Z,102396.25
2023-02-11T17:04:29.791Z,102400.47
2023-02-11T17:06:58.397Z,102392.22
2023-02-11T17:09:30.356Z,102396.25
2023-02-11T17:11:57.290Z,102395.66
2023-02-11T17:14:23.581Z,102393.88
2023-02-11T17:16:50.052Z,102390.78
2023-02-11T17:19:22.158Z,102388.31
2023-02-11T17:21:51.037Z,102394.91
2023-02-11T17:24:18.563Z,102395.88
2023-02-11T17:26:45.953Z,102396.25
2023-02-11T17:29:16.660Z,102396.84
2023-02-11T17:31:43.520Z,102404.50
2023-02-11T17:34:10.510Z,102416.59
2023-02-11T17:36:37.151Z,102404.69
2023-02-11T17:39:07.695Z,102411.28
2023-02-11T17:41:37.231Z,102413.16
2023-02-11T17:44:04.128Z,102413.63
2023-02-11T17:46:30.567Z,102414.59
2023-02-11T17:48:59.080Z,102407.53
2023-02-11T17:51:27.248Z,102408.72
2023-02-11T17:53:53.972Z,102414.59
2023-02-11T17:56:20.527Z,102412.81
2023-02-11T17:58:47.569Z,102415.75
2023-02-11T18:01:14.429Z,102420.00
2023-02-11T18:03:40.810Z,102427.66
2023-02-11T18:06:07.701Z,102433.19
2023-02-11T18:08:35.335Z,102432.22
2023-02-11T18:11:02.203Z,102439.13
2023-02-11T18:13:29.751Z,102436.22
2023-02-11T18:16:02.697Z,102445.38
2023-02-11T18:18:29.148Z,102459.47
2023-02-11T18:20:59.406Z,102463.69
2023-02-11T18:23:26.271Z,102466.63
2023-02-11T18:25:52.946Z,102463.03
2023-02-11T18:28:19.691Z,102461.75
2023-02-11T18:30:46.079Z,102463.38
2023-02-11T18:33:12.731Z,102467.00
2023-02-11T18:35:39.536Z,102457.47
2023-02-11T18:38:05.900Z,102464.38
2023-02-11T18:40:38.849Z,102464.16
2023-02-11T18:43:08.116Z,102464.16
2023-02-11T18:45:34.564Z,102470.75
2023-02-11T18:48:00.906Z,102469.72
2023-02-11T18:50:27.410Z,102483.97
2023-02-11T18:52:53.717Z,102490.03
2023-02-11T18:55:22.548Z,102481.56
2023-02-11T18:57:49.813Z,102490.72
2023-02-11T19:00:16.567Z,102486.13
2023-02-11T19:02:42.863Z,102491.34
2023-02-11T19:05:09.582Z,102490.38
2023-02-11T19:07:35.965Z,102486.13
2023-02-11T19:10:02.313Z,102493.19
2023-02-11T19:12:28.596Z,102497.31
2023-02-11T19:14:54.887Z,102501.09
2023-02-11T19:17:21.234Z,102505.28
2023-02-11T19:19:47.684Z,102499.66
2023-02-11T19:22:13.974Z,102501.31
2023-02-11T19:24:40.299Z,102506.78
2023-02-11T19:27:06.607Z,102499.59
2023-02-11T19:29:33.100Z,102515.34
2023-02-11T19:31:59.483Z,102520.63
2023-02-11T19:34:25.842Z,102519.56
2023-02-11T19:36:52.632Z,102528.22
2023-02-11T19:39:18.923Z,102527.06
2023-02-11T19:41:45.302Z,102527.66
2023-02-11T19:44:13.622Z,102523.91
2023-02-11T19:46:40.245Z,102528.25
2023-02-11T19:49:06.759Z,102526.69
2023-02-11T19:51:33.732Z,102528.56
2023-02-11T19:54:00.652Z,102534.34
2023-02-11T19:56:27.591Z,102536.88
2023-02-11T19:58:54.893Z,102544.78
2023-02-11T20:01:22.731Z,102537.59
2023-02-11T20:03:50.221Z,102544.16
2023-02-11T20:06:19.904Z,102537.78
2023-02-11T20:08:46.288Z,102534.13
2023-02-11T20:11:16.985Z,102526.25
2023-02-11T20:13:44.321Z,102526.72
2023-02-11T20:16:16.280Z,102535.75
2023-02-11T20:18:43.509Z,102539.78
2023-02-11T20:21:16.123Z,102535.81
2023-02-11T20:23:43.141Z,102543.88
2023-02-11T20:26:13.074Z,102537.16
2023-02-11T20:28:39.470Z,102541.41
2023-02-11T20:31:06.864Z,102541.66
2023-02-11T20:33:34.096Z,102538.69
2023-02-11T20:36:07.624Z,102540.81
2023-02-11T20:38:34.962Z,102549.84
2023-02-11T20:41:11.446Z,102553.72
2023-02-11T20:43:38.077Z,102544.94
2023-02-11T20:46:06.012Z,102547.47
2023-02-11T20:48:32.990Z,102554.09
2023-02-11T20:51:04.345Z,102553.66
2023-02-11T20:53:30.870Z,102563.03
2023-02-11T20:56:00.488Z,102562.97
2023-02-11T20:58:26.799Z,102563.78
2023-02-11T21:00:53.234Z,102570.00
2023-02-11T21:03:19.563Z,102568.38
2023-02-11T21:05:45.913Z,102569.84
2023-02-11T21:08:12.257Z,102564.75
2023-02-11T21:10:38.612Z,102574.28
2023-02-11T21:13:04.978Z,102571.22
2023-02-11T21:15:31.342Z,102577.84
2023-02-11T21:17:57.918Z,102578.03
2023-02-11T21:20:24.314Z,102580.91
2023-02-11T21:22:50.757Z,102582.38
2023-02-11T21:25:17.492Z,102578.78
2023-02-11T21:27:46.472Z,102576.25
2023-02-11T21:30:13.409Z,102582.09
2023-02-11T21:32:39.769Z,102581.56
2023-02-11T21:35:06.839Z,102587.66
2023-02-11T21:37:33.254Z,102591.34
2023-02-11T21:39:59.863Z,102590.38
2023-02-11T21:42:26.469Z,102599.91
2023-02-11T21:44:52.800Z,102602.81
2023-02-11T21:47:19.120Z,102603.53
2023-02-11T21:49:45.427Z,102606.16
2023-02-11T21:52:11.766Z,102600.22
2023-02-11T21:54:38.115Z,102606.06
2023-02-11T21:57:04.453Z,102614.91
2023-02-11T21:59:30.826Z,102627.97
2023-02-11T22:01:57.574Z,102627.25
2023-02-11T22:04:24.239Z,102630.03
2023-02-11T22:06:50.730Z,102623.78
2023-02-11T22:09:17.285Z,102622.56
2023-02-11T22:11:43.712Z,102623.47
2023-02-11T22:14:10.178Z,102620.03
2023-02-11T22:16:36.778Z,102622.28
2023-02-11T22:19:03.379Z,102632.00
2023-02-11T22:21:29.973Z,102631.00
2023-02-11T22:23:56.700Z,102626.72
2023-02-11T22:26:25.050Z,102631.59
2023-02-11T22:28:52.126Z,102638.66
2023-02-11T22:31:22.719Z,102643.00
2023-02-11T22:33:49.722Z,102643.47
2023-02-11T22:36:19.307Z,102643.00
2023-02-11T22:38:45.717Z,102636.47
2023-02-11T22:41:12.744Z,102649.16
2023-02-11T22:43:39.632Z,102648.78
2023-02-11T22:46:07.283Z,102651.13
2023-02-11T22:48:35.179Z,102664.19
2023-02-11T22:51:06.606Z,102663.59
2023-02-11T22:53:33.257Z,102663.44
2023-02-11T22:56:05.679Z,102663.28
2023-02-11T22:58:32.414Z,102658.25
2023-02-11T23:00:58.761Z,102662.38
2023-02-11T23:03:25.259Z,102667.78
2023-02-11T23:05:51.597Z,102668.53
2023-02-11T23:08:18.246Z,102661.41
2023-02-11T23:10:44.564Z,102668.25
2023-02-11T23:13:10.887Z,102669.44
2023-02-11T23:15:41.439Z,102676.91
2023-02-11T23:18:09.049Z,102679.53
2023-02-11T23:20:42.007Z,102679.66
2023-02-11T23:23:08.750Z,102683.66
2023-02-11T23:25:35.267Z,102686.50
2023-02-11T23:28:01.683Z,102687.78
2023-02-11T23:30:28.485Z,102690.69
2023-02-11T23:32:54.805Z,102694.38
2023-02-11T23:35:21.108Z,102699.03
2023-02-11T23:37:48.452Z,102694.38
2023-02-11T23:40:14.890Z,102690.47
2023-02-11T23:42:41.510Z,102692.78
2023-02-11T23:45:08.273Z,102693.19
2023-02-11T23:47:35.051Z,102691.50
2023-02-11T23:50:01.479Z,102690.38
2023-02-11T23:52:27.787Z,102690.31
2023-02-11T23:54:54.077Z,102683.84
2023-02-11T23:57:20.401Z,102682.03
2023-02-11T23:59:49.066Z,102684.13
